sensor_id;sensor_type;location;lat;lon;timestamp;pressure;altitude;pressure_sealevel;temperature;humidity
16690;BME280;8458;52.220;9.884;2022-12-18T00:01:44;102226.88;;;-5.86;76.04
16690;BME280;8458;52.220;9.884;2022-12-18T00:04:18;102228.59;;;-5.97;76.31
16690;BME280;8458;52.220;9.884;2022-12-18T00:06:46;102227.78;;;-6.21;76.86
16690;BME280;8458;52.220;9.884;2022-12-18T00:09:12;102231.63;;;-6.37;78.55
16690;BME280;8458;52.220;9.884;2022-12-18T00:11:39;102225.50;;;-6.39;78.73
16690;BME280;8458;52.220;9.884;2022-12-18T00:14:06;102223.69;;;-6.62;79.04
16690;BME280;8458;52.220;9.884;2022-12-18T00:16:33;102234.25;;;-6.59;79.12
16690;BME280;8458;52.220;9.884;2022-12-18T00:19:03;102235.00;;;-6.57;79.60
16690;BME280;8458;52.220;9.884;2022-12-18T00:21:31;102245.72;;;-6.44;79.62
16690;BME280;8458;52.220;9.884;2022-12-18T00:23:58;102245.13;;;-6.37;79.76
16690;BME280;8458;52.220;9.884;2022-12-18T00:26:27;102248.06;;;-6.40;79.75
16690;BME280;8458;52.220;9.884;2022-12-18T00:28:54;102251.59;;;-6.26;79.09
16690;BME280;8458;52.220;9.884;2022-12-18T00:31:24;102250.66;;;-6.14;79.04
16690;BME280;8458;52.220;9.884;2022-12-18T00:33:51;102256.75;;;-6.23;78.33
16690;BME280;8458;52.220;9.884;2022-12-18T00:36:19;102246.91;;;-6.24;78.30
16690;BME280;8458;52.220;9.884;2022-12-18T00:38:47;102242.44;;;-6.13;78.31
16690;BME280;8458;52.220;9.884;2022-12-18T00:41:14;102242.44;;;-6.13;78.31
16690;BME280;8458;52.220;9.884;2022-12-18T00:44:02;102251.91;;;-6.07;78.05
16690;BME280;8458;52.220;9.884;2022-12-18T00:46:29;102254.16;;;-6.01;78.31
16690;BME280;8458;52.220;9.884;2022-12-18T00:48:56;102249.47;;;-5.99;78.17
16690;BME280;8458;52.220;9.884;2022-12-18T00:51:22;102260.84;;;-5.95;77.06
16690;BME280;8458;52.220;9.884;2022-12-18T00:53:49;102272.94;;;-5.99;77.05
16690;BME280;8458;52.220;9.884;2022-12-18T00:56:15;102267.25;;;-5.96;76.78
16690;BME280;8458;52.220;9.884;2022-12-18T00:58:42;102265.91;;;-5.90;76.76
16690;BME280;8458;52.220;9.884;2022-12-18T01:01:08;102266.69;;;-5.88;77.39
16690;BME280;8458;52.220;9.884;2022-12-18T01:03:36;102260.69;;;-5.81;76.58
16690;BME280;8458;52.220;9.884;2022-12-18T01:06:06;102252.94;;;-5.85;76.61
16690;BME280;8458;52.220;9.884;2022-12-18T01:08:32;102257.09;;;-5.81;76.40
16690;BME280;8458;52.220;9.884;2022-12-18T01:10:59;102262.50;;;-5.81;76.05
16690;BME280;8458;52.220;9.884;2022-12-18T01:13:25;102257.84;;;-5.79;76.38
16690;BME280;8458;52.220;9.884;2022-12-18T01:15:52;102268.44;;;-5.76;76.18
16690;BME280;8458;52.220;9.884;2022-12-18T01:18:18;102272.56;;;-5.83;76.00
16690;BME280;8458;52.220;9.884;2022-12-18T01:20:46;102275.03;;;-5.91;75.64
16690;BME280;8458;52.220;9.884;2022-12-18T01:23:13;102271.09;;;-5.99;76.04
16690;BME280;8458;52.220;9.884;2022-12-18T01:25:39;102266.50;;;-6.09;75.53
16690;BME280;8458;52.220;9.884;2022-12-18T01:28:05;102264.47;;;-6.30;76.10
16690;BME280;8458;52.220;9.884;2022-12-18T01:30:32;102272.25;;;-6.38;76.78
16690;BME280;8458;52.220;9.884;2022-12-18T01:32:58;102280.41;;;-6.51;76.77
16690;BME280;8458;52.220;9.884;2022-12-18T01:35:25;102270.94;;;-6.57;77.33
16690;BME280;8458;52.220;9.884;2022-12-18T01:37:55;102269.38;;;-6.48;77.65
16690;BME280;8458;52.220;9.884;2022-12-18T01:40:22;102276.53;;;-6.47;77.31
16690;BME280;8458;52.220;9.884;2022-12-18T01:42:50;102270.13;;;-6.46;77.36
16690;BME280;8458;52.220;9.884;2022-12-18T01:45:25;102281.69;;;-6.44;77.34
16690;BME280;8458;52.220;9.884;2022-12-18T01:47:54;102276.28;;;-6.44;77.52
16690;BME280;8458;52.220;9.884;2022-12-18T01:50:22;102277.53;;;-6.37;77.06
16690;BME280;8458;52.220;9.884;2022-12-18T01:52:51;102280.34;;;-6.38;76.66
16690;BME280;8458;52.220;9.884;2022-12-18T01:55:22;102277.53;;;-6.37;76.60
16690;BME280;8458;52.220;9.884;2022-12-18T01:57:52;102285.19;;;-6.31;76.21
16690;BME280;8458;52.220;9.884;2022-12-18T02:00:21;102289.09;;;-6.35;76.48
16690;BME280;8458;52.220;9.884;2022-12-18T02:02:48;102283.47;;;-6.32;76.31
16690;BME280;8458;52.220;9.884;2022-12-18T02:05:16;102280.31;;;-6.25;76.03
16690;BME280;8458;52.220;9.884;2022-12-18T02:07:54;102276.63;;;-6.24;76.06
16690;BME280;8458;52.220;9.884;2022-12-18T02:10:29;102275.53;;;-6.22;76.95
16690;BME280;8458;52.220;9.884;2022-12-18T02:13:06;102290.88;;;-6.22;76.65
16690;BME280;8458;52.220;9.884;2022-12-18T02:15:39;102294.56;;;-6.23;76.12
16690;BME280;8458;52.220;9.884;2022-12-18T02:18:10;102285.06;;;-6.29;75.82
16690;BME280;8458;52.220;9.884;2022-12-18T02:20:43;102280.78;;;-6.32;75.53
16690;BME280;8458;52.220;9.884;2022-12-18T02:23:21;102286.41;;;-6.35;75.37
16690;BME280;8458;52.220;9.884;2022-12-18T02:26:09;102286.41;;;-6.35;75.05
16690;BME280;8458;52.220;9.884;2022-12-18T02:28:42;102288.34;;;-6.37;74.10
16690;BME280;8458;52.220;9.884;2022-12-18T02:31:13;102283.63;;;-6.46;74.45
16690;BME280;8458;52.220;9.884;2022-12-18T02:33:40;102276.09;;;-6.54;74.35
16690;BME280;8458;52.220;9.884;2022-12-18T02:36:09;102275.03;;;-6.51;75.01
16690;BME280;8458;52.220;9.884;2022-12-18T02:38:37;102271.47;;;-6.52;75.14
16690;BME280;8458;52.220;9.884;2022-12-18T02:41:07;102275.03;;;-6.51;75.46
16690;BME280;8458;52.220;9.884;2022-12-18T02:43:33;102279.00;;;-6.44;75.81
16690;BME280;8458;52.220;9.884;2022-12-18T02:46:23;102276.28;;;-6.44;75.55
16690;BME280;8458;52.220;9.884;2022-12-18T02:48:53;102269.66;;;-6.40;75.94
16690;BME280;8458;52.220;9.884;2022-12-18T02:51:29;102273.66;;;-6.33;76.73
16690;BME280;8458;52.220;9.884;2022-12-18T02:54:00;102269.88;;;-6.30;76.73
16690;BME280;8458;52.220;9.884;2022-12-18T02:56:38;102265.81;;;-6.24;76.12
16690;BME280;8458;52.220;9.884;2022-12-18T02:59:09;102266.84;;;-6.14;76.51
16690;BME280;8458;52.220;9.884;2022-12-18T03:01:44;102259.25;;;-6.09;77.75
16690;BME280;8458;52.220;9.884;2022-12-18T03:04:16;102258.78;;;-6.03;78.85
16690;BME280;8458;52.220;9.884;2022-12-18T03:06:46;102256.31;;;-6.06;79.24
16690;BME280;8458;52.220;9.884;2022-12-18T03:09:19;102260.75;;;-6.05;78.94
16690;BME280;8458;52.220;9.884;2022-12-18T03:11:53;102267.53;;;-5.99;79.24
16690;BME280;8458;52.220;9.884;2022-12-18T03:14:43;102264.81;;;-5.88;80.37
16690;BME280;8458;52.220;9.884;2022-12-18T03:17:17;102259.69;;;-5.80;81.09
16690;BME280;8458;52.220;9.884;2022-12-18T03:19:47;102258.72;;;-5.79;81.13
16690;BME280;8458;52.220;9.884;2022-12-18T03:22:16;102252.34;;;-5.78;81.96
16690;BME280;8458;52.220;9.884;2022-12-18T03:24:44;102249.50;;;-5.76;81.46
16690;BME280;8458;52.220;9.884;2022-12-18T03:27:15;102245.44;;;-5.82;81.13
16690;BME280;8458;52.220;9.884;2022-12-18T03:29:45;102254.50;;;-5.83;81.17
16690;BME280;8458;52.220;9.884;2022-12-18T03:32:17;102251.44;;;-5.78;81.42
16690;BME280;8458;52.220;9.884;2022-12-18T03:34:46;102253.06;;;-5.76;81.77
16690;BME280;8458;52.220;9.884;2022-12-18T03:37:16;102250.72;;;-5.69;81.91
16690;BME280;8458;52.220;9.884;2022-12-18T03:39:43;102253.91;;;-5.75;82.07
16690;BME280;8458;52.220;9.884;2022-12-18T03:42:15;102254.28;;;-5.80;82.35
16690;BME280;8458;52.220;9.884;2022-12-18T03:44:48;102257.16;;;-5.70;82.53
16690;BME280;8458;52.220;9.884;2022-12-18T03:47:25;102258.72;;;-5.67;83.70
16690;BME280;8458;52.220;9.884;2022-12-18T03:49:57;102255.16;;;-5.68;84.44
16690;BME280;8458;52.220;9.884;2022-12-18T03:52:27;102251.75;;;-5.70;84.75
16690;BME280;8458;52.220;9.884;2022-12-18T03:54:56;102250.97;;;-5.72;85.32
16690;BME280;8458;52.220;9.884;2022-12-18T03:57:28;102250.84;;;-5.70;85.11
16690;BME280;8458;52.220;9.884;2022-12-18T03:59:58;102248.44;;;-5.62;85.83
16690;BME280;8458;52.220;9.884;2022-12-18T04:02:26;102244.38;;;-5.56;85.46
16690;BME280;8458;52.220;9.884;2022-12-18T04:04:57;102249.03;;;-5.47;85.56
16690;BME280;8458;52.220;9.884;2022-12-18T04:07:25;102250.16;;;-5.38;84.74
16690;BME280;8458;52.220;9.884;2022-12-18T04:09:53;102256.44;;;-5.38;85.00
16690;BME280;8458;52.220;9.884;2022-12-18T04:12:23;102252.50;;;-5.23;85.08
16690;BME280;8458;52.220;9.884;2022-12-18T04:14:51;102261.84;;;-5.15;84.27
16690;BME280;8458;52.220;9.884;2022-12-18T04:17:18;102270.34;;;-5.09;83.76
16690;BME280;8458;52.220;9.884;2022-12-18T04:19:44;102272.19;;;-5.09;82.97
16690;BME280;8458;52.220;9.884;2022-12-18T04:22:11;102272.19;;;-5.09;82.89
16690;BME280;8458;52.220;9.884;2022-12-18T04:24:37;102273.16;;;-5.10;82.53
16690;BME280;8458;52.220;9.884;2022-12-18T04:27:04;102267.75;;;-5.10;82.05
16690;BME280;8458;52.220;9.884;2022-12-18T04:29:30;102262.34;;;-5.10;82.01
16690;BME280;8458;52.220;9.884;2022-12-18T04:31:58;102265.66;;;-5.18;82.04
16690;BME280;8458;52.220;9.884;2022-12-18T04:34:25;102258.41;;;-5.06;82.28
16690;BME280;8458;52.220;9.884;2022-12-18T04:36:51;102263.09;;;-4.97;81.62
16690;BME280;8458;52.220;9.884;2022-12-18T04:39:17;102260.38;;;-4.97;81.82
16690;BME280;8458;52.220;9.884;2022-12-18T04:41:44;102264.78;;;-4.96;81.67
16690;BME280;8458;52.220;9.884;2022-12-18T04:44:10;102259.38;;;-4.96;81.64
16690;BME280;8458;52.220;9.884;2022-12-18T04:46:37;102257.91;;;-5.00;81.05
16690;BME280;8458;52.220;9.884;2022-12-18T04:49:05;102253.22;;;-4.98;81.13
16690;BME280;8458;52.220;9.884;2022-12-18T04:51:31;102255.44;;;-4.92;80.65
16690;BME280;8458;52.220;9.884;2022-12-18T04:53:58;102260.84;;;-4.92;80.19
16690;BME280;8458;52.220;9.884;2022-12-18T04:56:24;102257.66;;;-4.97;79.85
16690;BME280;8458;52.220;9.884;2022-12-18T04:58:51;102249.69;;;-4.98;79.88
16690;BME280;8458;52.220;9.884;2022-12-18T05:01:17;102254.69;;;-5.05;79.58
16690;BME280;8458;52.220;9.884;2022-12-18T05:03:44;102262.56;;;-5.02;80.10
16690;BME280;8458;52.220;9.884;2022-12-18T05:06:12;102258.91;;;-5.01;79.97
16690;BME280;8458;52.220;9.884;2022-12-18T05:08:39;102259.88;;;-5.02;79.89
16690;BME280;8458;52.220;9.884;2022-12-18T05:11:07;102249.28;;;-5.05;79.32
16690;BME280;8458;52.220;9.884;2022-12-18T05:13:34;102267.75;;;-5.10;79.07
16690;BME280;8458;52.220;9.884;2022-12-18T05:16:01;102264.81;;;-5.18;78.98
16690;BME280;8458;52.220;9.884;2022-12-18T05:18:28;102271.19;;;-5.31;78.08
16690;BME280;8458;52.220;9.884;2022-12-18T05:20:55;102269.72;;;-5.35;78.09
16690;BME280;8458;52.220;9.884;2022-12-18T05:23:23;102268.75;;;-5.45;78.04
16690;BME280;8458;52.220;9.884;2022-12-18T05:25:51;102276.09;;;-5.47;77.57
16690;BME280;8458;52.220;9.884;2022-12-18T05:28:17;102274.09;;;-5.56;77.30
16690;BME280;8458;52.220;9.884;2022-12-18T05:30:47;102279.63;;;-5.58;77.63
16690;BME280;8458;52.220;9.884;2022-12-18T05:33:14;102277.53;;;-5.66;77.90
16690;BME280;8458;52.220;9.884;2022-12-18T05:35:40;102279.03;;;-5.62;78.04
16690;BME280;8458;52.220;9.884;2022-12-18T05:38:07;102282.69;;;-5.63;77.82
16690;BME280;8458;52.220;9.884;2022-12-18T05:40:35;102283.22;;;-5.57;77.64
16690;BME280;8458;52.220;9.884;2022-12-18T05:43:04;102283.34;;;-5.59;77.54
16690;BME280;8458;52.220;9.884;2022-12-18T05:45:31;102289.94;;;-5.63;78.01
16690;BME280;8458;52.220;9.884;2022-12-18T05:47:57;102292.03;;;-5.67;77.69
16690;BME280;8458;52.220;9.884;2022-12-18T05:50:24;102290.31;;;-5.68;78.26
16690;BME280;8458;52.220;9.884;2022-12-18T05:52:51;102297.44;;;-5.67;78.00
16690;BME280;8458;52.220;9.884;2022-12-18T05:55:17;102290.53;;;-5.71;77.85
16690;BME280;8458;52.220;9.884;2022-12-18T05:57:45;102297.44;;;-5.67;77.55
16690;BME280;8458;52.220;9.884;2022-12-18T06:00:12;102302.31;;;-5.72;77.30
16690;BME280;8458;52.220;9.884;2022-12-18T06:02:39;102310.19;;;-5.80;76.94
16690;BME280;8458;52.220;9.884;2022-12-18T06:05:06;102319.00;;;-5.78;76.74
16690;BME280;8458;52.220;9.884;2022-12-18T06:07:32;102314.59;;;-5.79;76.72
16690;BME280;8458;52.220;9.884;2022-12-18T06:09:59;102313.09;;;-5.95;76.23
16690;BME280;8458;52.220;9.884;2022-12-18T06:12:25;102314.31;;;-5.99;76.50
16690;BME280;8458;52.220;9.884;2022-12-18T06:14:53;102307.94;;;-5.98;76.31
16690;BME280;8458;52.220;9.884;2022-12-18T06:17:20;102309.88;;;-6.00;76.92
16690;BME280;8458;52.220;9.884;2022-12-18T06:19:46;102312.34;;;-5.97;76.82
16690;BME280;8458;52.220;9.884;2022-12-18T06:22:13;102313.56;;;-6.01;76.85
16690;BME280;8458;52.220;9.884;2022-12-18T06:24:39;102302.00;;;-6.03;76.71
16690;BME280;8458;52.220;9.884;2022-12-18T06:27:06;102310.16;;;-5.91;76.95
16690;BME280;8458;52.220;9.884;2022-12-18T06:29:32;102311.50;;;-5.97;76.65
16690;BME280;8458;52.220;9.884;2022-12-18T06:32:00;102310.88;;;-6.01;76.70
16690;BME280;8458;52.220;9.884;2022-12-18T06:34:26;102296.84;;;-6.06;77.28
16690;BME280;8458;52.220;9.884;2022-12-18T06:36:53;102301.38;;;-6.06;77.37
16690;BME280;8458;52.220;9.884;2022-12-18T06:39:19;102303.25;;;-6.07;77.27
16690;BME280;8458;52.220;9.884;2022-12-18T06:41:46;102303.34;;;-6.08;76.81
16690;BME280;8458;52.220;9.884;2022-12-18T06:44:12;102308.56;;;-6.18;76.32
16690;BME280;8458;52.220;9.884;2022-12-18T06:46:39;102312.03;;;-6.16;76.53
16690;BME280;8458;52.220;9.884;2022-12-18T06:49:06;102298.69;;;-6.06;76.61
16690;BME280;8458;52.220;9.884;2022-12-18T06:51:34;102313.94;;;-6.05;77.43
16690;BME280;8458;52.220;9.884;2022-12-18T06:54:00;102306.56;;;-6.03;78.14
16690;BME280;8458;52.220;9.884;2022-12-18T06:56:27;102315.56;;;-5.91;78.71
16690;BME280;8458;52.220;9.884;2022-12-18T06:58:54;102306.97;;;-5.85;79.32
16690;BME280;8458;52.220;9.884;2022-12-18T07:01:21;102313.63;;;-5.78;80.90
16690;BME280;8458;52.220;9.884;2022-12-18T07:03:51;102312.53;;;-5.76;81.99
16690;BME280;8458;52.220;9.884;2022-12-18T07:06:21;102323.84;;;-5.70;83.41
16690;BME280;8458;52.220;9.884;2022-12-18T07:08:49;102332.25;;;-5.62;83.75
16690;BME280;8458;52.220;9.884;2022-12-18T07:11:17;102326.34;;;-5.56;83.73
16690;BME280;8458;52.220;9.884;2022-12-18T07:13:45;102326.97;;;-5.52;84.02
16690;BME280;8458;52.220;9.884;2022-12-18T07:16:14;102325.78;;;-5.37;83.85
16690;BME280;8458;52.220;9.884;2022-12-18T07:18:41;102325.16;;;-5.29;83.47
16690;BME280;8458;52.220;9.884;2022-12-18T07:21:10;102340.03;;;-5.24;83.29
16690;BME280;8458;52.220;9.884;2022-12-18T07:23:38;102341.03;;;-5.25;83.05
16690;BME280;8458;52.220;9.884;2022-12-18T07:26:06;102346.56;;;-5.15;83.18
16690;BME280;8458;52.220;9.884;2022-12-18T07:28:34;102342.91;;;-5.14;83.01
16690;BME280;8458;52.220;9.884;2022-12-18T07:31:02;102351.88;;;-5.02;83.24
16690;BME280;8458;52.220;9.884;2022-12-18T07:33:29;102353.34;;;-4.98;83.01
16690;BME280;8458;52.220;9.884;2022-12-18T07:35:55;102351.00;;;-4.91;82.78
16690;BME280;8458;52.220;9.884;2022-12-18T07:38:22;102349.44;;;-4.82;82.87
16690;BME280;8458;52.220;9.884;2022-12-18T07:40:49;102357.06;;;-4.76;82.25
16690;BME280;8458;52.220;9.884;2022-12-18T07:43:16;102353.84;;;-4.70;82.33
16690;BME280;8458;52.220;9.884;2022-12-18T07:45:42;102365.66;;;-4.71;82.27
16690;BME280;8458;52.220;9.884;2022-12-18T07:48:09;102365.41;;;-4.68;82.32
16690;BME280;8458;52.220;9.884;2022-12-18T07:50:36;102359.88;;;-4.55;82.28
16690;BME280;8458;52.220;9.884;2022-12-18T07:53:02;102367.00;;;-4.54;82.38
16690;BME280;8458;52.220;9.884;2022-12-18T07:55:30;102359.88;;;-4.55;82.50
16690;BME280;8458;52.220;9.884;2022-12-18T07:58:00;102359.00;;;-4.56;82.35
16690;BME280;8458;52.220;9.884;2022-12-18T08:00:27;102351.66;;;-4.54;82.84
16690;BME280;8458;52.220;9.884;2022-12-18T08:02:53;102349.41;;;-4.48;83.16
16690;BME280;8458;52.220;9.884;2022-12-18T08:05:20;102342.00;;;-4.46;83.12
16690;BME280;8458;52.220;9.884;2022-12-18T08:07:46;102336.00;;;-4.50;83.49
16690;BME280;8458;52.220;9.884;2022-12-18T08:10:13;102344.34;;;-4.42;83.83
16690;BME280;8458;52.220;9.884;2022-12-18T08:12:39;102341.13;;;-4.36;83.76
16690;BME280;8458;52.220;9.884;2022-12-18T08:15:08;102339.31;;;-4.35;83.55
16690;BME280;8458;52.220;9.884;2022-12-18T08:17:34;102332.63;;;-4.31;83.81
16690;BME280;8458;52.220;9.884;2022-12-18T08:20:01;102338.78;;;-4.29;83.95
16690;BME280;8458;52.220;9.884;2022-12-18T08:22:28;102337.28;;;-4.22;83.66
16690;BME280;8458;52.220;9.884;2022-12-18T08:24:54;102330.63;;;-4.18;83.59
16690;BME280;8458;52.220;9.884;2022-12-18T08:27:21;102323.22;;;-4.16;83.29
16690;BME280;8458;52.220;9.884;2022-12-18T08:29:47;102319.75;;;-4.06;83.40
16690;BME280;8458;52.220;9.884;2022-12-18T08:32:15;102329.34;;;-4.02;82.71
16690;BME280;8458;52.220;9.884;2022-12-18T08:34:41;102324.91;;;-4.03;82.91
16690;BME280;8458;52.220;9.884;2022-12-18T08:37:08;102324.53;;;-3.99;83.23
16690;BME280;8458;52.220;9.884;2022-12-18T08:39:34;102332.53;;;-3.97;83.22
16690;BME280;8458;52.220;9.884;2022-12-18T08:42:00;102321.16;;;-3.91;83.00
16690;BME280;8458;52.220;9.884;2022-12-18T08:44:45;102314.97;;;-3.82;82.56
16690;BME280;8458;52.220;9.884;2022-12-18T08:47:11;102320.44;;;-3.72;82.61
16690;BME280;8458;52.220;9.884;2022-12-18T08:49:39;102321.97;;;-3.58;82.41
16690;BME280;8458;52.220;9.884;2022-12-18T08:52:05;102308.81;;;-3.63;81.86
16690;BME280;8458;52.220;9.884;2022-12-18T08:54:32;102310.59;;;-3.52;81.70
16690;BME280;8458;52.220;9.884;2022-12-18T08:56:59;102310.59;;;-3.52;81.52
16690;BME280;8458;52.220;9.884;2022-12-18T08:59:28;102315.50;;;-3.46;81.56
16690;BME280;8458;52.220;9.884;2022-12-18T09:01:55;102321.53;;;-3.42;81.39
16690;BME280;8458;52.220;9.884;2022-12-18T09:04:21;102318.16;;;-3.34;81.12
16690;BME280;8458;52.220;9.884;2022-12-18T09:06:49;102308.75;;;-3.30;80.63
16690;BME280;8458;52.220;9.884;2022-12-18T09:09:16;102314.16;;;-3.30;80.24
16690;BME280;8458;52.220;9.884;2022-12-18T09:11:42;102311.41;;;-3.19;79.87
16690;BME280;8458;52.220;9.884;2022-12-18T09:14:09;102317.13;;;-3.12;79.87
16690;BME280;8458;52.220;9.884;2022-12-18T09:16:36;102306.72;;;-3.07;79.58
16690;BME280;8458;52.220;9.884;2022-12-18T09:19:04;102302.88;;;-3.04;79.27
16690;BME280;8458;52.220;9.884;2022-12-18T09:21:33;102300.53;;;-2.88;79.27
16690;BME280;8458;52.220;9.884;2022-12-18T09:24:01;102298.53;;;-2.86;79.10
16690;BME280;8458;52.220;9.884;2022-12-18T09:26:27;102298.69;;;-2.78;79.11
16690;BME280;8458;52.220;9.884;2022-12-18T09:28:53;102292.88;;;-2.73;79.11
16690;BME280;8458;52.220;9.884;2022-12-18T09:31:22;102289.88;;;-2.60;78.59
16690;BME280;8458;52.220;9.884;2022-12-18T09:33:48;102289.06;;;-2.51;78.17
16690;BME280;8458;52.220;9.884;2022-12-18T09:36:16;102289.94;;;-2.41;78.13
16690;BME280;8458;52.220;9.884;2022-12-18T09:38:43;102290.84;;;-2.30;78.13
16690;BME280;8458;52.220;9.884;2022-12-18T09:41:25;102296.41;;;-2.22;78.13
16690;BME280;8458;52.220;9.884;2022-12-18T09:43:57;102290.28;;;-2.24;77.65
16690;BME280;8458;52.220;9.884;2022-12-18T09:46:28;102304.28;;;-2.19;77.58
16690;BME280;8458;52.220;9.884;2022-12-18T09:48:59;102301.72;;;-2.21;77.44
16690;BME280;8458;52.220;9.884;2022-12-18T09:51:30;102302.59;;;-2.10;77.31
16690;BME280;8458;52.220;9.884;2022-12-18T09:54:01;102303.00;;;-2.15;77.63
16690;BME280;8458;52.220;9.884;2022-12-18T09:56:35;102311.59;;;-2.20;78.23
16690;BME280;8458;52.220;9.884;2022-12-18T09:59:04;102311.16;;;-2.15;78.13
16690;BME280;8458;52.220;9.884;2022-12-18T10:01:32;102322.59;;;-2.02;78.50
16690;BME280;8458;52.220;9.884;2022-12-18T10:03:59;102312.47;;;-2.00;78.18
16690;BME280;8458;52.220;9.884;2022-12-18T10:06:29;102320.06;;;-1.93;77.49
16690;BME280;8458;52.220;9.884;2022-12-18T10:09:02;102306.19;;;-1.90;77.27
16690;BME280;8458;52.220;9.884;2022-12-18T10:11:40;102302.44;;;-1.89;77.33
16690;BME280;8458;52.220;9.884;2022-12-18T10:14:15;102309.59;;;-1.88;77.54
16690;BME280;8458;52.220;9.884;2022-12-18T10:16:55;102306.19;;;-1.90;76.19
16690;BME280;8458;52.220;9.884;2022-12-18T10:19:34;102301.28;;;-1.77;75.29
16690;BME280;8458;52.220;9.884;2022-12-18T10:22:15;102305.88;;;-1.68;74.88
16690;BME280;8458;52.220;9.884;2022-12-18T10:24:48;102302.84;;;-1.65;73.70
16690;BME280;8458;52.220;9.884;2022-12-18T10:27:23;102306.56;;;-1.46;74.17
16690;BME280;8458;52.220;9.884;2022-12-18T10:29:51;102310.41;;;-1.39;73.50
16690;BME280;8458;52.220;9.884;2022-12-18T10:32:19;102297.22;;;-1.34;73.13
16690;BME280;8458;52.220;9.884;2022-12-18T10:34:46;102291.34;;;-1.29;72.71
16690;BME280;8458;52.220;9.884;2022-12-18T10:37:16;102288.16;;;-1.24;72.05
16690;BME280;8458;52.220;9.884;2022-12-18T10:39:43;102292.72;;;-1.15;71.68
16690;BME280;8458;52.220;9.884;2022-12-18T10:42:14;102291.84;;;-1.06;72.28
16690;BME280;8458;52.220;9.884;2022-12-18T10:44:43;102294.38;;;-0.95;72.96
16690;BME280;8458;52.220;9.884;2022-12-18T10:47:14;102299.34;;;-0.80;72.72
16690;BME280;8458;52.220;9.884;2022-12-18T10:49:47;102293.69;;;-0.69;72.38
16690;BME280;8458;52.220;9.884;2022-12-18T10:52:15;102295.50;;;-0.60;71.99
16690;BME280;8458;52.220;9.884;2022-12-18T10:54:48;102291.16;;;-0.52;71.82
16690;BME280;8458;52.220;9.884;2022-12-18T10:57:17;102290.72;;;-0.48;72.77
16690;BME280;8458;52.220;9.884;2022-12-18T10:59:58;102278.00;;;-0.39;73.01
16690;BME280;8458;52.220;9.884;2022-12-18T11:02:27;102277.41;;;-0.33;72.48
16690;BME280;8458;52.220;9.884;2022-12-18T11:05:00;102271.91;;;-0.23;73.07
16690;BME280;8458;52.220;9.884;2022-12-18T11:07:47;102265.50;;;-0.32;69.78
16690;BME280;8458;52.220;9.884;2022-12-18T11:10:16;102254.13;;;-0.27;70.11
16690;BME280;8458;52.220;9.884;2022-12-18T11:12:43;102250.31;;;-0.16;70.58
16690;BME280;8458;52.220;9.884;2022-12-18T11:15:16;102245.25;;;-0.11;71.03
16690;BME280;8458;52.220;9.884;2022-12-18T11:17:47;102241.81;;;-0.13;71.37
16690;BME280;8458;52.220;9.884;2022-12-18T11:20:21;102245.19;;;-0.02;71.84
16690;BME280;8458;52.220;9.884;2022-12-18T11:22:55;102257.63;;;0.01;73.10
16690;BME280;8458;52.220;9.884;2022-12-18T11:25:22;102251.31;;;0.01;73.14
16690;BME280;8458;52.220;9.884;2022-12-18T11:27:51;102256.31;;;0.05;72.13
16690;BME280;8458;52.220;9.884;2022-12-18T11:30:24;102258.72;;;0.08;71.00
16690;BME280;8458;52.220;9.884;2022-12-18T11:32:52;102258.72;;;0.08;68.86
16690;BME280;8458;52.220;9.884;2022-12-18T11:35:32;102263.16;;;0.09;69.60
16690;BME280;8458;52.220;9.884;2022-12-18T11:38:06;102250.47;;;0.00;68.63
16690;BME280;8458;52.220;9.884;2022-12-18T11:40:38;102250.78;;;-0.03;68.99
16690;BME280;8458;52.220;9.884;2022-12-18T11:43:09;102249.06;;;-0.04;68.45
16690;BME280;8458;52.220;9.884;2022-12-18T11:45:41;102242.34;;;-0.10;67.72
16690;BME280;8458;52.220;9.884;2022-12-18T11:48:15;102238.16;;;-0.04;67.66
16690;BME280;8458;52.220;9.884;2022-12-18T11:50:49;102231.69;;;-0.03;67.16
16690;BME280;8458;52.220;9.884;2022-12-18T11:53:17;102222.63;;;-0.04;66.03
16690;BME280;8458;52.220;9.884;2022-12-18T11:55:57;102226.31;;;0.05;65.48
16690;BME280;8458;52.220;9.884;2022-12-18T11:58:35;102217.97;;;0.07;66.25
16690;BME280;8458;52.220;9.884;2022-12-18T12:01:16;102213.72;;;0.12;66.38
16690;BME280;8458;52.220;9.884;2022-12-18T12:04:03;102200.69;;;0.24;67.87
16690;BME280;8458;52.220;9.884;2022-12-18T12:06:39;102188.94;;;0.24;68.55
16690;BME280;8458;52.220;9.884;2022-12-18T12:09:13;102189.78;;;0.24;68.69
16690;BME280;8458;52.220;9.884;2022-12-18T12:11:50;102174.41;;;0.23;68.87
16690;BME280;8458;52.220;9.884;2022-12-18T12:14:36;102174.66;;;0.30;68.08
16690;BME280;8458;52.220;9.884;2022-12-18T12:17:13;102164.06;;;0.27;67.75
16690;BME280;8458;52.220;9.884;2022-12-18T12:19:48;102164.69;;;0.21;67.90
16690;BME280;8458;52.220;9.884;2022-12-18T12:22:22;102168.91;;;0.15;68.78
16690;BME280;8458;52.220;9.884;2022-12-18T12:25:02;102159.00;;;0.14;69.47
16690;BME280;8458;52.220;9.884;2022-12-18T12:27:37;102159.31;;;0.11;70.69
16690;BME280;8458;52.220;9.884;2022-12-18T12:30:07;102154.50;;;0.05;70.86
16690;BME280;8458;52.220;9.884;2022-12-18T12:32:49;102151.94;;;0.03;71.14
16690;BME280;8458;52.220;9.884;2022-12-18T12:35:28;102151.50;;;-0.10;69.30
16690;BME280;8458;52.220;9.884;2022-12-18T12:38:11;102158.38;;;-0.06;70.57
16690;BME280;8458;52.220;9.884;2022-12-18T12:40:44;102146.38;;;-0.13;71.23
16690;BME280;8458;52.220;9.884;2022-12-18T12:43:22;102147.00;;;-0.20;72.56
16690;BME280;8458;52.220;9.884;2022-12-18T12:45:52;102153.41;;;-0.29;73.60
16690;BME280;8458;52.220;9.884;2022-12-18T12:48:33;102149.56;;;-0.36;73.95
16690;BME280;8458;52.220;9.884;2022-12-18T12:51:04;102146.09;;;-0.46;74.58
16690;BME280;8458;52.220;9.884;2022-12-18T12:53:36;102150.44;;;-0.53;75.27
16690;BME280;8458;52.220;9.884;2022-12-18T12:56:04;102134.19;;;-0.63;75.70
16690;BME280;8458;52.220;9.884;2022-12-18T12:58:36;102127.09;;;-0.74;75.92
16690;BME280;8458;52.220;9.884;2022-12-18T13:01:17;102117.13;;;-0.83;76.31
16690;BME280;8458;52.220;9.884;2022-12-18T13:03:55;102128.94;;;-0.93;76.57
16690;BME280;8458;52.220;9.884;2022-12-18T13:06:34;102135.00;;;-0.99;77.27
16690;BME280;8458;52.220;9.884;2022-12-18T13:09:03;102141.06;;;-1.05;77.55
16690;BME280;8458;52.220;9.884;2022-12-18T13:11:35;102128.22;;;-1.13;77.63
16690;BME280;8458;52.220;9.884;2022-12-18T13:14:22;102130.38;;;-1.16;78.16